Time;durP1;ratioP1;P1;durP2;ratioP2;P2;SDS_P1;SDS_P2;PMS_P1;PMS_P2;Temp;Humidity;BMP_temperature;BMP_pressure;BME280_temperature;BME280_humidity;BME280_pressure;Samples;Min_cycle;Max_cycle;Signal;HPM_P1;HPM_P2
2023/09/12 00:01:41;;;;;;;;;;;20.50;55.40;;;16.68;100.00;95250.59;4963873;28;19914;-47
2023/09/12 00:04:07;;;;;;;;;;;20.50;55.50;;;16.63;100.00;95246.13;4954241;28;20000;-45
2023/09/12 00:06:33;;;;;;;;;;;20.50;55.50;;;16.58;100.00;95248.19;4956693;28;20455;-46
2023/09/12 00:08:59;;;;;;;;;;;20.50;55.50;;;16.53;100.00;95245.63;4972062;28;20049;-49
2023/09/12 00:11:25;;;;;;;;;;;20.40;55.60;;;16.50;100.00;95244.34;4957478;28;20315;-45
2023/09/12 00:13:52;;;;;;;;;;;20.40;55.70;;;16.51;100.00;95242.44;4958174;28;19910;-46
2023/09/12 00:16:18;;;;;;;;;;;20.40;55.80;;;16.47;100.00;95239.59;4968216;28;19910;-45
2023/09/12 00:18:43;;;;;;;;;;;20.40;55.80;;;16.45;100.00;95243.69;4958586;28;19909;-46
2023/09/12 00:21:09;;;;;;;;;;;20.30;55.80;;;16.42;100.00;95237.84;4970208;28;19981;-44
2023/09/12 00:23:35;;;;;;;;;;;20.30;55.80;;;16.39;100.00;95234.97;4953824;28;19910;-44
2023/09/12 00:26:01;;;;;;;;;;;20.30;56.50;;;16.35;100.00;95239.38;4968330;28;20457;-51
2023/09/12 00:28:27;;;;;;;;;;;20.30;56.00;;;16.32;100.00;95235.41;4972875;28;20024;-48
2023/09/12 00:30:53;;;;;;;;;;;20.20;56.00;;;16.34;100.00;95240.47;4972437;28;19932;-49
2023/09/12 00:33:19;;;;;;;;;;;20.20;56.10;;;16.34;100.00;95235.91;4973051;28;20380;-49
2023/09/12 00:35:45;;;;;;;;;;;20.20;56.20;;;16.32;100.00;95231.94;4972261;28;19941;-46
2023/09/12 00:38:11;;;;;;;;;;;20.20;56.30;;;16.31;100.00;95233.03;4972108;28;20380;-49
2023/09/12 00:40:37;;;;;;;;;;;20.20;56.30;;;16.33;100.00;95233.53;4972577;28;19910;-45
2023/09/12 00:43:04;;;;;;;;;;;20.20;56.40;;;16.29;100.00;95235.22;4971774;28;20059;-47
2023/09/12 00:45:30;;;;;;;;;;;20.10;56.40;;;16.26;100.00;95239.31;4971905;28;19914;-47
2023/09/12 00:48:00;;;;;;;;;;;20.20;56.50;;;16.24;100.00;95236.16;4972640;28;20020;-48
2023/09/12 00:50:27;;;;;;;;;;;20.10;56.50;;;16.25;100.00;95232.38;4972039;28;20012;-52
2023/09/12 00:52:54;;;;;;;;;;;20.10;56.60;;;16.25;100.00;95227.00;4972837;28;20021;-47
2023/09/12 00:55:20;;;;;;;;;;;20.10;56.60;;;16.26;100.00;95222.41;4971453;28;19917;-45
2023/09/12 00:57:48;;;;;;;;;;;20.10;56.70;;;16.26;100.00;95220.50;4972015;28;19988;-46
2023/09/12 01:00:15;;;;;;;;;;;20.10;56.80;;;16.21;100.00;95220.66;4971354;28;19921;-53
2023/09/12 01:02:44;;;;;;;;;;;20.10;56.80;;;16.17;100.00;95220.50;4972435;28;20399;-52
2023/09/12 01:05:12;;;;;;;;;;;20.10;56.80;;;16.16;100.00;95226.16;4972175;28;19914;-52
2023/09/12 01:07:39;;;;;;;;;;;20.10;56.90;;;16.12;100.00;95228.66;4971003;28;19932;-54
2023/09/12 01:10:07;;;;;;;;;;;20.00;56.90;;;16.06;100.00;95234.47;4958006;28;19910;-53
2023/09/12 01:12:33;;;;;;;;;;;20.00;56.90;;;16.04;100.00;95231.31;4971395;28;19921;-54
2023/09/12 01:14:58;;;;;;;;;;;20.00;57.00;;;16.02;100.00;95236.22;4970650;28;19913;-54
2023/09/12 01:17:25;;;;;;;;;;;20.00;57.10;;;16.02;100.00;95239.69;4971958;28;19917;-54
2023/09/12 01:19:52;;;;;;;;;;;20.00;57.10;;;16.00;100.00;95238.41;4971031;28;19909;-56
2023/09/12 01:22:55;;;;;;;;;;;19.90;57.00;;;15.98;100.00;95245.97;4967526;28;19910;-56
2023/09/12 01:25:30;;;;;;;;;;;19.90;57.10;;;16.01;100.00;95245.34;4960725;28;19914;-54
2023/09/12 01:28:02;;;;;;;;;;;19.90;57.30;;;16.01;100.00;95248.03;4969904;28;19910;-51
2023/09/12 01:30:32;;;;;;;;;;;19.90;57.40;;;15.98;100.00;95249.44;4968717;28;20284;-51
2023/09/12 01:33:00;;;;;;;;;;;19.90;57.40;;;15.94;100.00;95253.84;4954715;28;19956;-55
2023/09/12 01:35:26;;;;;;;;;;;19.90;57.40;;;15.91;100.00;95249.88;4970309;28;19917;-53
2023/09/12 01:37:52;;;;;;;;;;;19.90;57.50;;;15.90;100.00;95259.03;4971321;28;19914;-49
2023/09/12 01:40:20;;;;;;;;;;;19.80;57.50;;;15.88;100.00;95255.84;4971874;28;20420;-53
2023/09/12 01:42:48;;;;;;;;;;;19.80;57.50;;;15.84;100.00;95254.88;4958444;28;19940;-50
2023/09/12 01:45:18;;;;;;;;;;;19.80;57.60;;;15.83;100.00;95257.88;4967401;28;20403;-54
2023/09/12 01:47:47;;;;;;;;;;;19.80;57.70;;;15.78;100.00;95252.63;4970117;28;19910;-52
2023/09/12 01:50:14;;;;;;;;;;;19.70;57.60;;;15.75;100.00;95245.97;4969549;28;19964;-48
2023/09/12 01:52:41;;;;;;;;;;;19.70;57.70;;;15.78;100.00;95255.31;4967121;28;20284;-52
2023/09/12 01:55:09;;;;;;;;;;;19.70;57.80;;;15.76;100.00;95254.81;4965879;28;20368;-54
2023/09/12 01:57:37;;;;;;;;;;;19.70;57.80;;;15.73;100.00;95258.91;4971185;28;19912;-54
2023/09/12 02:00:04;;;;;;;;;;;19.60;57.90;;;15.69;100.00;95264.09;4971387;28;19909;-48
2023/09/12 02:02:29;;;;;;;;;;;19.60;57.90;;;15.64;100.00;95253.47;4971445;28;19956;-53
2023/09/12 02:05:19;;;;;;;;;;;19.60;57.90;;;15.57;100.00;95263.00;4971691;28;19909;-49
2023/09/12 02:07:46;;;;;;;;;;;19.60;57.90;;;15.54;100.00;95264.41;4970402;28;19921;-54
2023/09/12 02:10:13;;;;;;;;;;;19.50;58.00;;;15.57;100.00;95266.47;4971541;28;20364;-53
2023/09/12 02:12:39;;;;;;;;;;;19.50;58.10;;;15.54;100.00;95260.94;4970536;28;20360;-52
2023/09/12 02:15:06;;;;;;;;;;;19.50;58.10;;;15.54;100.00;95264.41;4966808;28;19914;-53
2023/09/12 02:17:32;;;;;;;;;;;19.50;58.20;;;15.50;100.00;95269.59;4963357;28;19909;-53
2023/09/12 02:19:58;;;;;;;;;;;19.50;58.30;;;15.46;100.00;95259.78;4970316;28;20640;-52
2023/09/12 02:22:23;;;;;;;;;;;19.50;58.30;;;15.47;100.00;95266.72;4971912;28;19913;-49
2023/09/12 02:24:50;;;;;;;;;;;19.50;58.40;;;15.43;100.00;95268.44;4970384;28;19910;-54
2023/09/12 02:27:16;;;;;;;;;;;19.40;58.40;;;15.42;100.00;95267.66;4970915;28;19944;-53
2023/09/12 02:29:43;;;;;;;;;;;19.40;58.50;;;15.40;100.00;95261.78;4958269;28;20351;-53
2023/09/12 02:32:09;;;;;;;;;;;19.40;58.50;;;15.38;100.00;95269.31;4970616;28;19913;-50
2023/09/12 02:34:35;;;;;;;;;;;19.30;58.50;;;15.38;100.00;95266.63;4971487;28;20257;-51
2023/09/12 02:37:01;;;;;;;;;;;19.30;58.50;;;15.36;100.00;95257.31;4963135;28;19913;-52
2023/09/12 02:39:27;;;;;;;;;;;19.30;58.50;;;15.33;100.00;95247.19;4958806;28;19979;-55
2023/09/12 02:41:52;;;;;;;;;;;19.30;58.60;;;15.30;100.00;95255.84;4972873;28;20352;-55
2023/09/12 02:44:18;;;;;;;;;;;19.30;58.70;;;15.29;100.00;95255.03;4973577;28;19920;-52
2023/09/12 02:46:44;;;;;;;;;;;19.30;58.80;;;15.25;100.00;95254.84;4973946;28;19971;-53
2023/09/12 02:49:10;;;;;;;;;;;19.20;58.80;;;15.21;100.00;95258.44;4969685;28;19910;-51
2023/09/12 02:51:39;;;;;;;;;;;19.20;58.80;;;15.22;100.00;95260.03;4968256;28;19917;-51
2023/09/12 02:54:05;;;;;;;;;;;19.20;58.80;;;15.18;100.00;95267.09;4974357;28;20004;-50
2023/09/12 02:56:31;;;;;;;;;;;19.20;58.90;;;15.16;100.00;95253.19;4973914;28;19913;-52
2023/09/12 02:58:57;;;;;;;;;;;19.20;58.90;;;15.16;100.00;95262.00;4974378;28;19909;-51
2023/09/12 03:01:25;;;;;;;;;;;19.20;58.90;;;15.16;100.00;95261.22;4973804;28;19972;-56
2023/09/12 03:03:51;;;;;;;;;;;19.20;59.00;;;15.18;100.00;95267.09;4974777;28;19909;-55
2023/09/12 03:06:20;;;;;;;;;;;19.20;59.10;;;15.20;100.00;95259.56;4972820;28;19969;-55
2023/09/12 03:08:47;;;;;;;;;;;19.10;59.10;;;15.20;100.00;95259.56;4974362;28;19914;-53
2023/09/12 03:11:13;;;;;;;;;;;19.20;59.20;;;15.18;100.00;95261.72;4974610;28;20403;-56
2023/09/12 03:13:41;;;;;;;;;;;19.20;59.20;;;15.17;100.00;95257.47;4973455;28;19910;-49
2023/09/12 03:16:14;;;;;;;;;;;19.10;59.20;;;15.17;100.00;95254.78;4973827;28;19937;-54
2023/09/12 03:18:41;;;;;;;;;;;19.10;59.20;;;15.15;100.00;95259.66;4973383;28;19936;-53
2023/09/12 03:21:07;;;;;;;;;;;19.10;59.20;;;15.13;100.00;95256.47;4973738;28;19945;-54
2023/09/12 03:23:33;;;;;;;;;;;19.10;59.30;;;15.13;100.00;95261.84;4956641;28;19910;-55
2023/09/12 03:26:04;;;;;;;;;;;19.10;59.30;;;15.13;100.00;95259.16;4968139;28;19918;-51
2023/09/12 03:28:30;;;;;;;;;;;19.10;59.40;;;15.08;100.00;95260.06;4954613;28;19910;-50
2023/09/12 03:31:13;;;;;;;;;;;19.10;59.40;;;15.07;100.00;95260.34;4957531;28;19916;-52
2023/09/12 03:33:42;;;;;;;;;;;19.10;59.50;;;15.07;100.00;95258.44;4954530;28;19910;-53
2023/09/12 03:36:09;;;;;;;;;;;19.10;59.50;;;15.02;100.00;95255.91;4953930;28;19910;-52
2023/09/12 03:38:35;;;;;;;;;;;19.10;59.50;;;15.04;100.00;95251.81;4961527;28;20361;-53
2023/09/12 03:41:01;;;;;;;;;;;19.10;59.60;;;15.01;100.00;95249.75;4954679;28;19940;-55
2023/09/12 03:43:28;;;;;;;;;;;19.00;59.50;;;15.00;100.00;95239.31;4965680;28;19910;-56
2023/09/12 03:45:54;;;;;;;;;;;19.00;59.60;;;15.01;100.00;95243.56;4955002;28;20332;-53
2023/09/12 03:48:19;;;;;;;;;;;19.00;59.60;;;15.01;100.00;95235.50;4964080;28;19917;-53
2023/09/12 03:50:46;;;;;;;;;;;19.00;59.70;;;15.03;100.00;95246.75;4955470;28;19914;-52
2023/09/12 03:53:15;;;;;;;;;;;19.00;59.70;;;15.03;100.00;95244.84;4953624;28;19932;-52
2023/09/12 03:55:42;;;;;;;;;;;19.00;59.80;;;15.05;100.00;95244.56;4961817;28;20012;-53
2023/09/12 03:58:08;;;;;;;;;;;19.00;59.80;;;15.02;100.00;95240.59;4961328;28;19910;-49
2023/09/12 04:00:33;;;;;;;;;;;19.00;59.80;;;15.00;100.00;95245.47;4956544;28;19913;-50
2023/09/12 04:02:59;;;;;;;;;;;19.00;59.90;;;14.98;100.00;95247.66;4961365;28;19910;-51
2023/09/12 04:05:26;;;;;;;;;;;19.00;59.90;;;14.96;100.00;95244.47;4953366;28;20037;-51
2023/09/12 04:07:54;;;;;;;;;;;19.00;59.90;;;14.95;100.00;95240.22;4963763;28;26953;-44
2023/09/12 04:10:23;;;;;;;;;;;18.90;59.90;;;14.92;100.00;95235.44;4973240;28;19937;-44
2023/09/12 04:12:48;;;;;;;;;;;18.90;60.00;;;14.89;100.00;95244.09;4971993;28;19910;-47
2023/09/12 04:15:15;;;;;;;;;;;18.90;60.00;;;14.87;100.00;95248.94;4972786;28;19920;-50
2023/09/12 04:17:40;;;;;;;;;;;18.90;60.00;;;14.85;100.00;95250.34;4972637;28;19915;-44
2023/09/12 04:20:07;;;;;;;;;;;18.90;60.10;;;14.84;100.00;95254.13;4971773;28;19917;-46
2023/09/12 04:22:33;;;;;;;;;;;18.90;60.20;;;14.87;100.00;95248.16;4972949;28;20295;-46
2023/09/12 04:24:59;;;;;;;;;;;18.90;60.20;;;14.86;100.00;95236.66;4971583;28;19914;-47
2023/09/12 04:27:25;;;;;;;;;;;18.90;60.20;;;14.86;100.00;95244.69;4972620;28;19910;-46
2023/09/12 04:29:50;;;;;;;;;;;18.80;60.20;;;14.86;100.00;95243.91;4972933;28;19914;-46
2023/09/12 04:32:22;;;;;;;;;;;18.90;60.30;;;14.93;100.00;95242.41;4972104;28;19967;-44
2023/09/12 04:34:51;;;;;;;;;;;18.90;60.50;;;14.93;100.00;95247.75;4972626;28;20295;-45
2023/09/12 04:37:18;;;;;;;;;;;18.90;60.60;;;14.94;100.00;95243.97;4971577;28;20003;-45
2023/09/12 04:39:45;;;;;;;;;;;18.90;60.60;;;14.94;100.00;95252.00;4972693;28;19964;-44
2023/09/12 04:42:10;;;;;;;;;;;18.90;60.60;;;14.96;100.00;95247.16;4971718;28;20288;-51
2023/09/12 04:44:39;;;;;;;;;;;18.90;60.70;;;14.97;100.00;95247.94;4972265;28;19914;-45
2023/09/12 04:47:05;;;;;;;;;;;18.90;60.70;;;14.95;100.00;95253.63;4972224;28;20005;-45
2023/09/12 04:49:31;;;;;;;;;;;18.90;60.80;;;14.98;100.00;95258.38;4971511;28;20004;-47
2023/09/12 04:51:57;;;;;;;;;;;18.90;60.80;;;14.98;100.00;95258.38;4969528;28;20377;-45
2023/09/12 04:54:22;;;;;;;;;;;19.00;60.90;;;14.96;100.00;95257.09;4967311;28;19991;-46
2023/09/12 04:56:48;;;;;;;;;;;19.00;60.70;;;14.95;100.00;95256.31;4971870;28;20410;-50
2023/09/12 04:59:14;;;;;;;;;;;19.00;60.80;;;14.97;100.00;95256.78;4972081;28;19917;-46
2023/09/12 05:01:40;;;;;;;;;;;19.00;60.90;;;14.98;100.00;95257.59;4971304;28;19941;-50
2023/09/12 05:04:06;;;;;;;;;;;19.00;60.90;;;14.99;100.00;95254.59;4972022;28;19910;-47
2023/09/12 05:06:32;;;;;;;;;;;19.00;61.10;;;14.99;100.00;95257.28;4970396;28;20013;-47
2023/09/12 05:08:58;;;;;;;;;;;19.00;60.90;;;14.99;100.00;95261.84;4972205;28;19965;-50
2023/09/12 05:11:24;;;;;;;;;;;19.00;60.90;;;15.06;100.00;95266.81;4972243;28;19935;-46
2023/09/12 05:13:50;;;;;;;;;;;19.10;61.00;;;15.02;100.00;95266.63;4953994;28;19910;-50
2023/09/12 05:16:16;;;;;;;;;;;19.10;61.00;;;15.02;100.00;95269.31;4971808;28;20426;-50
2023/09/12 05:18:42;;;;;;;;;;;19.10;61.00;;;15.08;100.00;95272.69;4971117;28;19914;-48
2023/09/12 05:21:08;;;;;;;;;;;19.10;61.00;;;15.09;100.00;95271.59;4971856;28;19910;-51
2023/09/12 05:23:34;;;;;;;;;;;19.20;61.00;;;15.10;100.00;95273.16;4972203;28;19913;-49
2023/09/12 05:26:00;;;;;;;;;;;19.20;61.00;;;15.15;100.00;95275.75;4970978;28;20300;-51
2023/09/12 05:28:25;;;;;;;;;;;19.30;61.00;;;15.14;100.00;95261.53;4971432;28;19910;-48
2023/09/12 05:30:52;;;;;;;;;;;19.30;61.10;;;15.18;100.00;95267.88;4971441;28;19920;-47
2023/09/12 05:33:18;;;;;;;;;;;19.30;61.00;;;15.25;100.00;95270.16;4972048;28;19909;-52
2023/09/12 05:35:44;;;;;;;;;;;19.40;61.00;;;15.21;100.00;95269.97;4971745;28;19993;-49
2023/09/12 05:38:11;;;;;;;;;;;19.40;61.00;;;15.27;100.00;95271.44;4965824;28;19945;-50
2023/09/12 05:40:36;;;;;;;;;;;19.50;61.10;;;15.33;100.00;95274.81;4969570;28;19910;-49
2023/09/12 05:43:02;;;;;;;;;;;19.50;61.10;;;15.42;100.00;95269.53;4960817;28;19914;-52
2023/09/12 05:45:32;;;;;;;;;;;19.60;61.10;;;15.48;100.00;95276.34;4966493;28;19933;-48
2023/09/12 05:48:03;;;;;;;;;;;19.70;61.10;;;15.55;100.00;95276.75;4957306;28;19917;-48
2023/09/12 05:50:28;;;;;;;;;;;19.70;61.00;;;15.69;100.00;95285.56;4964508;28;20527;-47
2023/09/12 05:52:54;;;;;;;;;;;19.90;61.10;;;15.78;100.00;95282.97;4958017;28;19996;-49
2023/09/12 05:55:20;;;;;;;;;;;19.90;61.10;;;15.85;100.00;95280.63;4967353;28;19910;-47
2023/09/12 05:57:47;;;;;;;;;;;20.00;61.10;;;15.93;100.00;95284.50;4967000;28;19918;-48
2023/09/12 06:00:15;;;;;;;;;;;20.10;61.00;;;15.97;100.00;95274.72;4968039;28;19962;-50
2023/09/12 06:02:42;;;;;;;;;;;20.20;60.90;;;16.09;100.00;95283.03;4970847;28;20295;-48
2023/09/12 06:05:08;;;;;;;;;;;20.30;60.90;;;16.16;100.00;95286.06;4966823;28;19938;-52
2023/09/12 06:07:35;;;;;;;;;;;20.40;60.90;;;16.22;100.00;95288.63;4963123;28;19917;-46
2023/09/12 06:10:01;;;;;;;;;;;20.50;60.90;;;16.30;100.00;95286.00;4952861;28;19916;-50
2023/09/12 06:12:27;;;;;;;;;;;20.50;60.70;;;16.41;100.00;95283.84;4965673;28;19910;-48
2023/09/12 06:14:56;;;;;;;;;;;20.70;60.70;;;16.53;100.00;95291.34;4963768;28;19918;-48
2023/09/12 06:17:22;;;;;;;;;;;20.80;60.60;;;16.64;100.00;95298.03;4970513;28;20020;-50
2023/09/12 06:19:51;;;;;;;;;;;21.00;60.60;;;16.70;100.00;95294.09;4973424;28;19961;-48
2023/09/12 06:22:17;;;;;;;;;;;21.00;60.50;;;16.82;100.00;95296.22;4974367;28;19917;-47
2023/09/12 06:24:46;;;;;;;;;;;21.20;60.50;;;17.00;100.00;95295.19;4970023;28;19916;-50
2023/09/12 06:27:18;;;;;;;;;;;21.30;60.40;;;17.11;100.00;95291.09;4973278;28;19914;-50
2023/09/12 06:29:48;;;;;;;;;;;21.50;60.30;;;17.32;100.00;95295.88;4964496;28;20238;-51
2023/09/12 06:32:15;;;;;;;;;;;21.70;60.30;;;17.52;100.00;95299.91;4963350;28;19909;-49
2023/09/12 06:34:42;;;;;;;;;;;21.90;60.10;;;17.67;100.00;95295.94;4974004;28;19910;-50
2023/09/12 06:37:08;;;;;;;;;;;22.10;59.90;;;17.82;100.00;95294.69;4969646;28;19914;-49
2023/09/12 06:39:34;;;;;;;;;;;22.30;60.00;;;17.93;100.00;95304.84;4966762;28;19910;-48
2023/09/12 06:42:00;;;;;;;;;;;22.40;59.80;;;18.02;100.00;95302.16;4970234;28;20004;-48
2023/09/12 06:44:26;;;;;;;;;;;22.60;59.70;;;18.09;100.00;95302.47;4970713;28;19917;-48
2023/09/12 06:46:51;;;;;;;;;;;22.60;59.50;;;18.21;100.00;95299.13;4974314;28;20424;-47
2023/09/12 06:49:17;;;;;;;;;;;22.80;59.40;;;18.28;100.00;95302.13;4973641;28;19992;-49
2023/09/12 06:51:43;;;;;;;;;;;23.00;59.30;;;18.49;100.00;95299.53;4974691;28;19910;-49
2023/09/12 06:54:08;;;;;;;;;;;23.20;59.10;;;18.78;100.00;95292.66;4974653;28;20376;-51
2023/09/12 06:56:37;;;;;;;;;;;23.60;58.80;;;19.19;100.00;95297.38;4972691;28;19917;-50
2023/09/12 06:59:04;;;;;;;;;;;24.00;58.60;;;19.64;100.00;95302.97;4974490;28;19920;-47
2023/09/12 07:01:30;;;;;;;;;;;24.50;58.50;;;20.02;99.04;95295.84;4973747;28;19917;-50
2023/09/12 07:03:56;;;;;;;;;;;24.90;58.20;;;20.44;95.01;95287.69;4974355;28;19993;-52
2023/09/12 07:06:23;;;;;;;;;;;25.40;58.00;;;20.89;90.57;95295.78;4972862;28;20059;-48
2023/09/12 07:08:49;;;;;;;;;;;25.80;57.60;;;21.33;87.69;95289.81;4974300;28;19914;-52
2023/09/12 07:11:15;;;;;;;;;;;26.30;57.30;;;21.81;84.03;95302.53;4974165;28;19913;-50
2023/09/12 07:13:41;;;;;;;;;;;26.80;56.90;;;22.23;77.94;95302.19;4973256;28;20331;-47
2023/09/12 07:16:07;;;;;;;;;;;27.30;56.50;;;22.71;73.28;95302.28;4974267;28;20313;-49
2023/09/12 07:18:33;;;;;;;;;;;27.80;55.90;;;23.12;73.20;95305.63;4972983;28;19916;-48
2023/09/12 07:21:01;;;;;;;;;;;28.30;55.30;;;23.56;71.44;95315.22;4973663;28;19936;-49
2023/09/12 07:23:28;;;;;;;;;;;28.80;54.80;;;24.03;69.22;95316.25;4974066;28;19935;-48
2023/09/12 07:25:57;;;;;;;;;;;29.30;54.30;;;24.44;63.85;95311.25;4972957;28;20299;-49
2023/09/12 07:28:24;;;;;;;;;;;29.90;53.80;;;24.84;62.77;95316.28;4972686;28;19941;-48
2023/09/12 07:30:50;;;;;;;;;;;30.40;53.70;;;25.14;61.79;95316.44;4973233;28;19916;-48
2023/09/12 07:33:16;;;;;;;;;;;30.90;52.50;;;25.55;60.38;95311.22;4972865;28;20015;-49
2023/09/12 07:35:41;;;;;;;;;;;31.40;51.90;;;25.95;59.19;95312.59;4960672;28;19914;-49
2023/09/12 07:38:07;;;;;;;;;;;31.90;51.50;;;26.36;57.94;95320.91;4972995;28;20275;-48
2023/09/12 07:40:33;;;;;;;;;;;32.30;50.90;;;26.71;56.71;95320.53;4973650;28;19917;-51
2023/09/12 07:42:59;;;;;;;;;;;32.70;50.30;;;26.95;55.84;95326.59;4972234;28;20304;-49
2023/09/12 07:45:24;;;;;;;;;;;33.10;49.80;;;27.16;55.44;95323.31;4966052;28;20288;-48
2023/09/12 07:47:50;;;;;;;;;;;33.40;49.40;;;27.30;54.55;95323.44;4954199;28;20288;-52
2023/09/12 07:50:16;;;;;;;;;;;33.50;48.60;;;27.64;53.35;95328.75;4964141;28;20389;-53
2023/09/12 07:52:42;;;;;;;;;;;33.80;48.30;;;28.00;52.55;95327.03;4954454;28;19910;-51
2023/09/12 07:55:09;;;;;;;;;;;34.00;47.90;;;28.31;51.46;95328.38;4954028;28;19916;-48
2023/09/12 07:57:36;;;;;;;;;;;34.20;47.60;;;28.47;50.46;95330.03;4961844;28;19909;-49
2023/09/12 08:00:05;;;;;;;;;;;34.50;47.20;;;28.51;50.13;95325.31;4954000;28;19917;-50
2023/09/12 08:02:30;;;;;;;;;;;34.70;46.80;;;28.82;49.62;95321.88;4959658;28;19917;-49
2023/09/12 08:04:56;;;;;;;;;;;34.90;46.40;;;29.11;50.24;95323.91;4960263;28;19914;-54
2023/09/12 08:07:22;;;;;;;;;;;35.30;46.10;;;29.41;49.12;95324.31;4960967;28;19987;-54
2023/09/12 08:09:54;;;;;;;;;;;35.50;45.80;;;29.61;46.91;95326.69;4971900;28;20012;-52
2023/09/12 08:12:22;;;;;;;;;;;35.70;45.30;;;29.85;47.04;95327.84;4960324;28;19963;-50
2023/09/12 08:14:48;;;;;;;;;;;36.00;44.80;;;30.08;45.82;95327.38;4965636;28;19917;-53
2023/09/12 08:17:15;;;;;;;;;;;36.10;44.40;;;30.30;45.67;95330.84;4954351;28;19910;-46
2023/09/12 08:19:42;;;;;;;;;;;36.20;44.20;;;30.45;43.63;95332.38;4964252;28;19917;-46
2023/09/12 08:22:09;;;;;;;;;;;36.30;44.00;;;30.33;43.93;95335.56;4953422;28;19910;-47
2023/09/12 08:24:37;;;;;;;;;;;36.30;43.60;;;30.41;44.69;95334.34;4955786;28;19917;-46
2023/09/12 08:27:04;;;;;;;;;;;36.30;43.40;;;30.25;44.54;95332.06;4957314;28;19955;-48
2023/09/12 08:29:31;;;;;;;;;;;36.40;43.20;;;30.55;43.54;95334.28;4953362;28;20365;-48
2023/09/12 08:31:57;;;;;;;;;;;36.60;42.90;;;30.75;42.95;95328.31;4965339;28;19932;-51
2023/09/12 08:34:22;;;;;;;;;;;36.80;42.60;;;30.61;43.74;95321.69;4953499;28;20377;-49
2023/09/12 08:36:48;;;;;;;;;;;37.00;42.30;;;30.56;45.46;95319.38;4954534;28;19914;-48
2023/09/12 08:39:22;;;;;;;;;;;37.10;42.00;;;30.74;43.80;95323.97;4953568;28;19921;-46
2023/09/12 08:41:49;;;;;;;;;;;37.20;41.50;;;30.59;43.51;95315.81;4958022;28;19942;-48
2023/09/12 08:44:16;;;;;;;;;;;37.20;41.30;;;30.64;43.60;95320.09;4959421;28;20642;-47
2023/09/12 08:46:44;;;;;;;;;;;37.30;41.10;;;30.80;44.33;95316.91;4958795;28;19914;-47
2023/09/12 08:49:10;;;;;;;;;;;37.30;41.00;;;31.13;44.89;95321.03;4963983;28;19944;-47
2023/09/12 08:51:40;;;;;;;;;;;37.40;40.80;;;31.53;42.53;95316.03;4967817;28;20373;-48
2023/09/12 08:54:07;;;;;;;;;;;37.60;40.70;;;31.74;42.11;95309.50;4972402;28;20375;-47
2023/09/12 08:56:39;;;;;;;;;;;37.70;40.50;;;31.86;42.87;95305.47;4970661;28;19976;-46
2023/09/12 08:59:06;;;;;;;;;;;37.90;41.00;;;31.96;40.50;95310.88;4972335;28;19909;-50
2023/09/12 09:01:33;;;;;;;;;;;38.00;39.90;;;31.82;40.88;95310.25;4971361;28;20312;-51
2023/09/12 09:03:58;;;;;;;;;;;38.20;39.70;;;32.11;39.91;95307.97;4963926;28;19913;-47
2023/09/12 09:06:26;;;;;;;;;;;38.30;39.30;;;32.24;40.45;95303.50;4970399;28;19928;-47
2023/09/12 09:08:53;;;;;;;;;;;38.30;39.10;;;32.25;38.65;95310.59;4972456;28;19914;-46
2023/09/12 09:11:19;;;;;;;;;;;38.40;38.90;;;32.18;39.38;95300.41;4970689;28;20280;-47
2023/09/12 09:13:45;;;;;;;;;;;38.40;38.70;;;32.25;39.29;95296.81;4971184;28;19914;-46
2023/09/12 09:16:17;;;;;;;;;;;38.60;38.50;;;32.67;39.81;95308.50;4971444;28;19960;-47
2023/09/12 09:18:57;;;;;;;;;;;38.70;38.20;;;33.04;37.07;95306.81;4971775;28;20391;-46
2023/09/12 09:21:31;;;;;;;;;;;39.00;38.20;;;33.10;37.58;95296.88;4972048;28;19909;-48
2023/09/12 09:24:22;;;;;;;;;;;39.10;37.90;;;33.09;36.49;95292.53;4971779;28;19946;-47
2023/09/12 09:26:51;;;;;;;;;;;39.20;37.50;;;33.23;36.58;95297.06;4971280;28;19964;-48
2023/09/12 09:29:19;;;;;;;;;;;39.40;37.20;;;33.39;36.67;95297.19;4971917;28;19910;-47
2023/09/12 09:31:49;;;;;;;;;;;39.70;37.00;;;33.22;34.54;95292.72;4971129;28;20332;-47
2023/09/12 09:34:21;;;;;;;;;;;39.90;36.60;;;33.34;35.30;95297.66;4972066;28;19917;-47
2023/09/12 09:36:57;;;;;;;;;;;40.00;36.30;;;33.37;35.14;95292.09;4970706;28;19916;-47
2023/09/12 09:39:31;;;;;;;;;;;40.10;36.00;;;33.70;34.21;95286.06;4971960;28;19913;-47
2023/09/12 09:41:57;;;;;;;;;;;40.20;35.80;;;34.12;34.75;95295.53;4971448;28;19942;-47
2023/09/12 09:44:26;;;;;;;;;;;40.60;35.60;;;34.60;35.85;95291.44;4971010;28;19910;-47
2023/09/12 09:47:01;;;;;;;;;;;41.10;35.40;;;34.68;33.62;95289.28;4971150;28;19972;-47
2023/09/12 09:49:27;;;;;;;;;;;41.40;34.90;;;34.74;32.23;95290.34;4970922;28;19918;-48
2023/09/12 09:51:56;;;;;;;;;;;41.60;34.50;;;34.93;31.68;95289.50;4973527;28;20285;-48
2023/09/12 09:54:25;;;;;;;;;;;41.80;34.00;;;35.13;31.62;95294.22;4975166;28;19914;-48
2023/09/12 09:56:57;;;;;;;;;;;41.90;33.80;;;35.11;31.23;95294.66;4962753;28;19910;-47
2023/09/12 09:59:25;;;;;;;;;;;42.00;33.40;;;35.31;33.01;95294.56;4975461;28;19913;-47
2023/09/12 10:02:00;;;;;;;;;;;42.20;33.90;;;35.73;30.58;95285.63;4970219;28;19946;-48
2023/09/12 10:04:28;;;;;;;;;;;42.50;33.00;;;35.66;30.80;95300.44;4971646;28;20280;-48
2023/09/12 10:06:58;;;;;;;;;;;42.50;32.80;;;35.32;30.51;95298.09;4974284;28;19918;-48
2023/09/12 10:09:28;;;;;;;;;;;42.20;33.50;;;34.98;30.75;95290.97;4975413;28;19929;-51
2023/09/12 10:11:57;;;;;;;;;;;42.10;32.60;;;35.27;31.47;95296.66;4975567;28;19910;-53
2023/09/12 10:14:28;;;;;;;;;;;42.10;32.30;;;35.28;30.96;95289.88;4970185;28;19910;-54
2023/09/12 10:17:02;;;;;;;;;;;42.10;31.90;;;35.42;30.96;95283.25;4967990;28;19910;-46
2023/09/12 10:19:54;;;;;;;;;;;42.20;32.00;;;35.57;30.58;95278.94;4975081;28;19913;-45
2023/09/12 10:22:40;;;;;;;;;;;42.30;31.80;;;35.51;29.81;95264.03;4973924;28;19917;-50
2023/09/12 10:25:08;;;;;;;;;;;42.50;31.60;;;35.41;29.99;95268.63;4975100;28;19921;-45
2023/09/12 10:27:34;;;;;;;;;;;42.70;31.40;;;35.47;29.03;95268.84;4971358;28;19914;-48
2023/09/12 10:30:04;;;;;;;;;;;42.70;31.10;;;35.48;29.38;95270.44;4972249;28;19935;-45
2023/09/12 10:32:32;;;;;;;;;;;42.70;30.90;;;35.09;29.40;95266.63;4974929;28;20288;-45
2023/09/12 10:34:59;;;;;;;;;;;42.60;30.80;;;35.04;28.09;95272.69;4974366;28;20012;-45
2023/09/12 10:37:29;;;;;;;;;;;42.50;30.80;;;34.97;29.23;95267.28;4974650;28;19917;-48
2023/09/12 10:39:57;;;;;;;;;;;42.40;30.70;;;35.02;29.68;95269.53;4975140;28;19965;-47
2023/09/12 10:42:26;;;;;;;;;;;42.50;30.60;;;35.27;29.83;95263.44;4969347;28;19964;-54
2023/09/12 10:44:54;;;;;;;;;;;42.60;30.40;;;35.38;30.57;95257.63;4957552;28;19933;-48
2023/09/12 10:47:21;;;;;;;;;;;42.80;30.20;;;35.55;29.04;95252.88;4957558;28;20004;-45
2023/09/12 10:49:48;;;;;;;;;;;42.90;30.10;;;35.62;30.46;95247.16;4959820;28;19936;-45
2023/09/12 10:52:29;;;;;;;;;;;42.90;29.90;;;35.84;29.90;95242.59;4973875;28;19964;-48
2023/09/12 10:54:56;;;;;;;;;;;42.90;29.80;;;35.96;29.07;95243.84;4974064;28;19949;-52
2023/09/12 10:57:22;;;;;;;;;;;43.00;29.70;;;35.83;28.89;95243.03;4974678;28;19909;-52
2023/09/12 11:00:10;;;;;;;;;;;43.20;29.60;;;36.00;28.45;95244.50;4973199;28;19957;-45
2023/09/12 11:02:39;;;;;;;;;;;43.40;29.50;;;36.07;29.36;95243.56;4972018;28;20016;-46
2023/09/12 11:05:28;;;;;;;;;;;43.40;29.20;;;36.34;27.51;95232.09;4974955;28;20285;-45
2023/09/12 11:07:59;;;;;;;;;;;43.60;29.20;;;36.80;25.89;95227.94;4963814;28;19918;-49
2023/09/12 11:10:26;;;;;;;;;;;43.90;29.20;;;37.03;26.91;95229.63;4974495;28;19917;-45
2023/09/12 11:12:56;;;;;;;;;;;44.10;29.00;;;36.99;26.38;95225.41;4973191;28;19913;-48
2023/09/12 11:15:25;;;;;;;;;;;44.20;29.40;;;36.98;26.16;95226.59;4974329;28;19916;-47